createdAt,value
2023-03-15T00:01:36.429Z,100235.97
2023-03-15T00:04:08.318Z,100236.84
2023-03-15T00:06:39.985Z,100237.44
2023-03-15T00:09:13.297Z,100234.66
2023-03-15T00:11:45.096Z,100236.59
2023-03-15T00:14:16.915Z,100244.84
2023-03-15T00:16:48.749Z,100248.31
2023-03-15T00:19:21.012Z,100242.44
2023-03-15T00:21:52.816Z,100251.53
2023-03-15T00:24:26.038Z,100258.72
2023-03-15T00:26:57.830Z,100259.66
2023-03-15T00:29:29.676Z,100256.31
2023-03-15T00:32:02.502Z,100259.91
2023-03-15T00:34:34.887Z,100259.06
2023-03-15T00:37:06.773Z,100261.59
2023-03-15T00:39:40.906Z,100268.88
2023-03-15T00:42:15.501Z,100270.66
2023-03-15T00:44:47.653Z,100278.22
2023-03-15T00:47:19.814Z,100275.72
2023-03-15T00:49:51.667Z,100279.91
2023-03-15T00:52:23.532Z,100290.59
2023-03-15T00:55:00.357Z,100293.09
2023-03-15T00:57:33.356Z,100284.34
2023-03-15T01:00:06.020Z,100289.84
2023-03-15T01:02:38.336Z,100296.09
2023-03-15T01:05:12.021Z,100302.31
2023-03-15T01:07:45.494Z,100307.59
2023-03-15T01:10:19.791Z,100299.69
2023-03-15T01:12:51.595Z,100306.75
2023-03-15T01:15:23.505Z,100303.25
2023-03-15T01:17:56.610Z,100303.03
2023-03-15T01:20:28.426Z,100311.69
2023-03-15T01:23:00.225Z,100300.16
2023-03-15T01:25:33.203Z,100309.78
2023-03-15T01:28:05.026Z,100313.03
2023-03-15T01:30:36.827Z,100319.16
2023-03-15T01:33:08.681Z,100309.22
2023-03-15T01:35:40.584Z,100310.91
2023-03-15T01:38:12.381Z,100313.41
2023-03-15T01:40:49.506Z,100312.34
2023-03-15T01:43:24.656Z,100315.81
2023-03-15T01:46:15.629Z,100313.19
2023-03-15T01:48:56.750Z,100314.88
2023-03-15T01:51:34.214Z,100306.75
2023-03-15T01:54:08.616Z,100315.72
2023-03-15T01:56:47.391Z,100316.56
2023-03-15T01:59:27.085Z,100314.88
2023-03-15T02:01:59.695Z,100320.78
2023-03-15T02:04:46.316Z,100320.78
2023-03-15T02:07:23.135Z,100319.31
2023-03-15T02:10:03.194Z,100334.19
2023-03-15T02:12:45.369Z,100327.94
2023-03-15T02:15:18.490Z,100333.22
2023-03-15T02:17:52.615Z,100328.06
2023-03-15T02:20:36.449Z,100322.56
2023-03-15T02:23:13.685Z,100324.34
2023-03-15T02:25:54.512Z,100327.00
2023-03-15T02:28:28.461Z,100336.84
2023-03-15T02:31:01.660Z,100347.38
2023-03-15T02:33:39.873Z,100343.66
2023-03-15T02:36:21.704Z,100335.84
2023-03-15T02:38:55.208Z,100339.34
2023-03-15T02:41:33.139Z,100341.75
2023-03-15T02:44:12.288Z,100348.63
2023-03-15T02:46:45.207Z,100341.31
2023-03-15T02:49:18.078Z,100343.50
2023-03-15T02:51:49.900Z,100352.75
2023-03-15T02:54:21.759Z,100350.50
2023-03-15T02:56:53.635Z,100350.78
2023-03-15T02:59:26.798Z,100354.28
2023-03-15T03:01:58.616Z,100352.47
2023-03-15T03:04:30.587Z,100359.41
2023-03-15T03:07:02.250Z,100361.09
2023-03-15T03:09:33.949Z,100369.03
2023-03-15T03:12:05.810Z,100376.22
2023-03-15T03:14:39.073Z,100376.31
2023-03-15T03:17:10.910Z,100384.38
2023-03-15T03:19:42.768Z,100378.88
2023-03-15T03:22:14.566Z,100378.03
2023-03-15T03:24:46.926Z,100383.41
2023-03-15T03:27:19.755Z,100387.97
2023-03-15T03:29:53.048Z,100392.41
2023-03-15T03:32:24.897Z,100408.47
2023-03-15T03:34:56.838Z,100404.47
2023-03-15T03:37:30.794Z,100415.03
2023-03-15T03:40:05.325Z,100422.44
2023-03-15T03:42:36.998Z,100422.44
2023-03-15T03:45:10.466Z,100428.78
2023-03-15T03:47:42.536Z,100426.25
2023-03-15T03:50:16.333Z,100429.22
2023-03-15T03:52:48.102Z,100439.88
2023-03-15T03:55:19.971Z,100433.75
2023-03-15T03:57:52.391Z,100440.81
2023-03-15T04:00:26.154Z,100436.53
2023-03-15T04:02:57.903Z,100448.13
2023-03-15T04:05:30.068Z,100449.09
2023-03-15T04:08:01.722Z,100459.00
2023-03-15T04:10:35.012Z,100453.97
2023-03-15T04:13:06.920Z,100462.59
2023-03-15T04:15:40.232Z,100464.50
2023-03-15T04:18:12.929Z,100477.78
2023-03-15T04:20:46.876Z,100482.84
2023-03-15T04:23:20.214Z,100480.94
2023-03-15T04:25:55.102Z,100486.84
2023-03-15T04:28:26.981Z,100480.84
2023-03-15T04:31:00.260Z,100502.78
2023-03-15T04:33:32.457Z,100502.78
2023-03-15T04:36:04.073Z,100507.94
2023-03-15T04:38:35.875Z,100509.63
2023-03-15T04:41:10.939Z,100504.34
2023-03-15T04:43:43.003Z,100499.09
2023-03-15T04:46:16.419Z,100495.50
2023-03-15T04:48:48.200Z,100496.44
2023-03-15T04:51:20.078Z,100501.72
2023-03-15T04:53:52.101Z,100505.22
2023-03-15T04:56:24.031Z,100516.59
2023-03-15T04:58:55.908Z,100513.53
2023-03-15T05:01:33.767Z,100521.44
2023-03-15T05:04:06.143Z,100524.81
2023-03-15T05:06:38.006Z,100534.53
2023-03-15T05:09:09.888Z,100534.75
2023-03-15T05:11:41.687Z,100538.97
2023-03-15T05:14:13.640Z,100546.03
2023-03-15T05:16:48.300Z,100545.31
2023-03-15T05:19:21.710Z,100550.69
2023-03-15T05:21:54.629Z,100562.09
2023-03-15T05:24:26.519Z,100562.81
2023-03-15T05:26:58.358Z,100567.25
2023-03-15T05:29:32.232Z,100570.63
2023-03-15T05:32:05.421Z,100568.94
2023-03-15T05:34:37.091Z,100575.91
2023-03-15T05:37:08.939Z,100587.72
2023-03-15T05:39:42.439Z,100583.28
2023-03-15T05:42:14.393Z,100586.69
2023-03-15T05:44:46.353Z,100594.69
2023-03-15T05:47:19.576Z,100600.81
2023-03-15T05:49:52.334Z,100602.50
2023-03-15T05:52:24.124Z,100612.22
2023-03-15T05:54:55.649Z,100626.88
2023-03-15T05:57:27.368Z,100626.75
2023-03-15T05:59:59.317Z,100632.97
2023-03-15T06:02:32.495Z,100635.44
2023-03-15T06:05:04.499Z,100644.28
2023-03-15T06:07:36.097Z,100648.63
2023-03-15T06:10:09.211Z,100647.88
2023-03-15T06:12:41.211Z,100660.13
2023-03-15T06:15:13.177Z,100667.72
2023-03-15T06:17:46.381Z,100661.50
2023-03-15T06:20:20.165Z,100668.56
2023-03-15T06:22:52.330Z,100669.31
2023-03-15T06:25:23.916Z,100666.03
2023-03-15T06:27:55.739Z,100668.69
2023-03-15T06:30:28.024Z,100677.44
2023-03-15T06:33:01.177Z,100675.75
2023-03-15T06:35:33.054Z,100679.31
2023-03-15T06:38:04.959Z,100690.63
2023-03-15T06:40:36.788Z,100693.28
2023-03-15T06:43:08.816Z,100699.41
2023-03-15T06:45:40.433Z,100697.59
2023-03-15T06:48:14.501Z,100702.78
2023-03-15T06:50:47.789Z,100705.94
2023-03-15T06:53:20.555Z,100713.53
2023-03-15T06:55:52.301Z,100718.50
2023-03-15T06:58:24.017Z,100727.78
2023-03-15T07:00:56.229Z,100730.00
2023-03-15T07:03:29.534Z,100735.91
2023-03-15T07:06:01.359Z,100748.81
2023-03-15T07:08:33.231Z,100746.16
2023-03-15T07:11:06.348Z,100752.22
2023-03-15T07:13:40.040Z,100754.94
2023-03-15T07:16:11.629Z,100756.66
2023-03-15T07:18:44.587Z,100752.41
2023-03-15T07:21:16.402Z,100773.50
2023-03-15T07:23:49.122Z,100773.50
2023-03-15T07:26:20.938Z,100778.63
2023-03-15T07:28:52.807Z,100776.91
2023-03-15T07:31:24.722Z,100772.56
2023-03-15T07:33:57.925Z,100790.13
2023-03-15T07:36:29.688Z,100795.41
2023-03-15T07:39:01.658Z,100792.75
2023-03-15T07:41:33.360Z,100801.41
2023-03-15T07:44:05.199Z,100802.25
2023-03-15T07:46:37.056Z,100807.44
2023-03-15T07:49:10.324Z,100801.63
2023-03-15T07:51:42.408Z,100806.91
2023-03-15T07:54:14.076Z,100808.38
2023-03-15T07:56:45.906Z,100819.16
2023-03-15T07:59:17.764Z,100822.56
2023-03-15T08:01:49.708Z,100819.50
2023-03-15T08:04:22.958Z,100833.97
2023-03-15T08:06:54.551Z,100817.69
2023-03-15T08:09:26.451Z,100828.03
2023-03-15T08:11:58.335Z,100839.38
2023-03-15T08:14:31.524Z,100839.25
2023-03-15T08:17:03.101Z,100835.34
2023-03-15T08:19:36.295Z,100836.50
2023-03-15T08:22:08.297Z,100847.06
2023-03-15T08:24:40.033Z,100845.91
2023-03-15T08:27:12.702Z,100846.63
2023-03-15T08:29:44.638Z,100850.63
2023-03-15T08:32:17.448Z,100850.31
2023-03-15T08:34:53.084Z,100861.66
2023-03-15T08:37:25.049Z,100857.00
2023-03-15T08:40:01.057Z,100865.84
2023-03-15T08:42:32.896Z,100875.84
2023-03-15T08:45:07.036Z,100875.94
2023-03-15T08:47:39.311Z,100883.34
2023-03-15T08:50:16.259Z,100884.94
2023-03-15T08:52:47.872Z,100884.59
2023-03-15T08:55:19.803Z,100888.41
2023-03-15T08:57:51.694Z,100897.28
2023-03-15T09:00:24.521Z,100903.34
2023-03-15T09:02:56.321Z,100905.84
2023-03-15T09:05:29.988Z,100905.16
2023-03-15T09:08:01.942Z,100914.59
2023-03-15T09:10:34.293Z,100916.59
2023-03-15T09:13:06.256Z,100922.88
2023-03-15T09:15:38.119Z,100923.38
2023-03-15T09:18:09.942Z,100925.78
2023-03-15T09:20:42.899Z,100927.91
2023-03-15T09:23:15.163Z,100933.03
2023-03-15T09:25:47.249Z,100925.09
2023-03-15T09:28:19.306Z,100938.13
2023-03-15T09:30:51.150Z,100937.88
2023-03-15T09:33:23.441Z,100946.34
2023-03-15T09:35:57.356Z,100945.50
2023-03-15T09:38:31.059Z,100936.84
2023-03-15T09:41:04.695Z,100939.88
2023-03-15T09:44:10.198Z,100941.59
2023-03-15T09:46:54.199Z,100946.28
2023-03-15T09:49:46.791Z,100950.00
2023-03-15T09:52:28.502Z,100956.63
2023-03-15T09:55:07.848Z,100959.81
2023-03-15T09:57:48.373Z,100961.28
2023-03-15T10:00:31.058Z,100957.78
2023-03-15T10:03:09.842Z,100972.06
2023-03-15T10:05:46.616Z,100968.09
2023-03-15T10:08:22.250Z,100969.03
2023-03-15T10:11:05.795Z,100966.63
2023-03-15T10:13:51.783Z,100974.47
2023-03-15T10:16:46.793Z,100966.97
2023-03-15T10:19:40.041Z,100963.19
2023-03-15T10:22:26.606Z,100969.03
2023-03-15T10:25:11.778Z,100963.56
2023-03-15T10:27:53.452Z,100973.94
2023-03-15T10:30:27.797Z,100968.16
2023-03-15T10:33:04.052Z,100958.28
2023-03-15T10:35:35.956Z,100956.81
2023-03-15T10:38:15.485Z,100963.47
2023-03-15T10:40:52.533Z,100956.91
2023-03-15T10:43:29.939Z,100972.97
2023-03-15T10:46:09.231Z,100965.53
2023-03-15T10:48:53.364Z,100968.66
2023-03-15T10:51:30.176Z,100976.50
2023-03-15T10:54:07.962Z,100976.38
2023-03-15T10:56:48.720Z,100973.00
2023-03-15T10:59:25.226Z,100981.41
2023-03-15T11:02:16.465Z,100969.72
2023-03-15T11:04:52.123Z,100977.69
2023-03-15T11:07:23.717Z,100974.94
2023-03-15T11:10:00.760Z,100983.13
2023-03-15T11:12:35.814Z,100983.38
2023-03-15T11:15:15.471Z,100983.50
2023-03-15T11:17:50.651Z,100983.50
2023-03-15T11:20:32.256Z,100985.03
2023-03-15T11:23:14.852Z,100979.97
2023-03-15T11:25:46.724Z,100982.84
2023-03-15T11:28:26.959Z,100984.31
2023-03-15T11:31:04.463Z,100984.97
2023-03-15T11:33:44.478Z,100985.66
2023-03-15T11:36:22.695Z,100992.88
2023-03-15T11:38:56.298Z,100979.53
2023-03-15T11:41:37.685Z,100991.53
2023-03-15T11:44:23.729Z,100991.41
2023-03-15T11:47:02.262Z,101001.34
2023-03-15T11:49:44.292Z,100994.88
2023-03-15T11:52:16.422Z,100993.13
2023-03-15T11:54:50.903Z,100986.97
2023-03-15T11:57:43.134Z,100993.81
2023-03-15T12:00:52.440Z,100992.59
2023-03-15T12:03:40.417Z,100988.53
2023-03-15T12:06:29.621Z,100992.69
2023-03-15T12:09:01.696Z,100992.59
2023-03-15T12:11:46.776Z,100997.84
2023-03-15T12:14:32.481Z,100999.44
2023-03-15T12:17:44.574Z,100992.88
2023-03-15T12:20:28.724Z,101000.31
2023-03-15T12:23:31.924Z,101005.91
2023-03-15T12:26:11.431Z,101004.16
2023-03-15T12:28:51.132Z,101011.88
2023-03-15T12:31:23.648Z,101005.97
2023-03-15T12:34:01.270Z,101027.03
2023-03-15T12:36:42.169Z,101018.69
2023-03-15T12:39:42.182Z,101037.13
2023-03-15T12:42:59.326Z,101072.63
2023-03-15T12:45:41.261Z,101076.78
2023-03-15T12:48:28.990Z,101089.69
2023-03-15T12:51:14.530Z,101102.41
2023-03-15T12:53:49.016Z,101119.56
2023-03-15T12:56:54.354Z,101127.28
2023-03-15T12:59:55.470Z,101125.75
2023-03-15T13:02:43.298Z,101121.84
2023-03-15T13:05:29.468Z,101128.94
2023-03-15T13:08:08.793Z,101132.34
2023-03-15T13:11:07.600Z,101131.88
2023-03-15T13:13:58.628Z,101137.06
2023-03-15T13:16:40.250Z,101140.31
2023-03-15T13:19:22.855Z,101144.97
2023-03-15T13:22:08.667Z,101154.81
2023-03-15T13:24:52.322Z,101153.53
2023-03-15T13:27:46.976Z,101152.88
2023-03-15T13:30:40.940Z,101154.78
2023-03-15T13:33:33.108Z,101156.50
2023-03-15T13:36:12.965Z,101146.63
2023-03-15T13:38:47.273Z,101140.09
2023-03-15T13:41:27.662Z,101147.63
2023-03-15T13:44:04.971Z,101154.00
2023-03-15T13:46:37.173Z,101150.97
2023-03-15T13:49:12.168Z,101154.81
2023-03-15T13:51:46.810Z,101147.25
2023-03-15T13:54:25.626Z,101152.81
2023-03-15T13:57:07.202Z,101153.03
2023-03-15T13:59:47.041Z,101144.84
2023-03-15T14:02:25.157Z,101146.91
2023-03-15T14:05:03.573Z,101151.84
2023-03-15T14:07:40.654Z,101150.72
2023-03-15T14:10:33.389Z,101147.66
2023-03-15T14:13:25.854Z,101151.28
2023-03-15T14:16:02.575Z,101147.19
2023-03-15T14:18:40.213Z,101145.59
2023-03-15T14:21:17.235Z,101155.50
2023-03-15T14:23:51.166Z,101150.03
2023-03-15T14:26:28.618Z,101165.84
2023-03-15T14:29:07.514Z,101155.88
2023-03-15T14:31:49.677Z,101158.94
2023-03-15T14:34:33.507Z,101153.31
2023-03-15T14:37:28.186Z,101155.69
2023-03-15T14:40:14.988Z,101154.13
2023-03-15T14:42:47.255Z,101155.78
2023-03-15T14:45:23.055Z,101155.44
2023-03-15T14:47:59.163Z,101147.38
2023-03-15T14:50:35.412Z,101148.75
2023-03-15T14:53:09.079Z,101151.75
2023-03-15T14:55:41.575Z,101148.38
2023-03-15T14:58:18.853Z,101152.84
2023-03-15T15:00:55.857Z,101161.38
2023-03-15T15:03:38.120Z,101149.38
2023-03-15T15:06:13.216Z,101149.22
2023-03-15T15:08:47.810Z,101160.94
2023-03-15T15:11:19.877Z,101162.22
2023-03-15T15:13:51.778Z,101162.44
2023-03-15T15:16:24.983Z,101166.44
2023-03-15T15:18:56.838Z,101167.56
2023-03-15T15:21:34.038Z,101165.88
2023-03-15T15:24:12.731Z,101163.28
2023-03-15T15:26:45.202Z,101162.22
2023-03-15T15:29:18.767Z,101163.56
2023-03-15T15:31:52.592Z,101172.47
2023-03-15T15:34:24.306Z,101168.22
2023-03-15T15:36:56.818Z,101168.97
2023-03-15T15:39:29.773Z,101171.78
2023-03-15T15:42:01.686Z,101175.06
2023-03-15T15:44:33.491Z,101170.56
2023-03-15T15:47:06.632Z,101171.88
2023-03-15T15:49:41.036Z,101172.03
2023-03-15T15:52:15.266Z,101176.31
2023-03-15T15:54:47.348Z,101179.31
2023-03-15T15:57:22.434Z,101176.09
2023-03-15T15:59:54.190Z,101169.47
2023-03-15T16:02:27.705Z,101181.84
2023-03-15T16:04:59.658Z,101183.06
2023-03-15T16:07:31.690Z,101185.91
2023-03-15T16:10:05.120Z,101181.75
2023-03-15T16:12:37.997Z,101189.25
2023-03-15T16:15:11.812Z,101189.81
2023-03-15T16:17:45.336Z,101191.69
2023-03-15T16:20:20.465Z,101201.06
2023-03-15T16:23:00.385Z,101195.00
2023-03-15T16:25:36.883Z,101202.81
2023-03-15T16:28:11.289Z,101203.28
2023-03-15T16:30:46.090Z,101206.72
2023-03-15T16:33:22.434Z,101206.72
2023-03-15T16:35:54.501Z,101202.25
2023-03-15T16:38:32.362Z,101218.38
2023-03-15T16:41:05.332Z,101218.88
2023-03-15T16:43:37.220Z,101221.16
2023-03-15T16:46:14.609Z,101222.16
2023-03-15T16:48:48.058Z,101231.94
2023-03-15T16:51:21.840Z,101237.97
2023-03-15T16:54:02.255Z,101236.16
2023-03-15T16:56:39.228Z,101241.88
2023-03-15T16:59:14.014Z,101237.06
2023-03-15T17:01:46.005Z,101241.03
2023-03-15T17:04:19.493Z,101245.50
2023-03-15T17:06:52.700Z,101255.16
2023-03-15T17:09:26.951Z,101256.16
2023-03-15T17:11:58.831Z,101259.50
2023-03-15T17:14:35.502Z,101265.56
2023-03-15T17:17:07.333Z,101260.19
2023-03-15T17:19:40.521Z,101265.66
2023-03-15T17:22:13.257Z,101268.44
2023-03-15T17:24:45.044Z,101264.91
2023-03-15T17:27:27.271Z,101262.84
2023-03-15T17:29:59.178Z,101270.56
2023-03-15T17:32:31.292Z,101269.91
2023-03-15T17:35:04.554Z,101271.75
2023-03-15T17:37:37.624Z,101272.09
2023-03-15T17:40:19.581Z,101279.44
2023-03-15T17:42:52.603Z,101277.25
2023-03-15T17:45:27.314Z,101287.16
2023-03-15T17:47:59.504Z,101293.38
2023-03-15T17:50:35.330Z,101299.38
2023-03-15T17:53:16.428Z,101296.53
2023-03-15T17:55:49.987Z,101306.91
2023-03-15T17:58:24.711Z,101297.66
2023-03-15T18:00:57.073Z,101306.00
2023-03-15T18:03:29.488Z,101304.09
2023-03-15T18:06:05.172Z,101305.59
2023-03-15T18:08:36.895Z,101299.66
2023-03-15T18:11:16.214Z,101309.22
2023-03-15T18:13:47.891Z,101302.66
2023-03-15T18:16:20.953Z,101303.69
2023-03-15T18:18:52.853Z,101305.41
2023-03-15T18:21:29.292Z,101309.28
2023-03-15T18:24:00.881Z,101312.50
2023-03-15T18:26:32.848Z,101303.91
2023-03-15T18:29:04.684Z,101324.25
2023-03-15T18:31:36.662Z,101311.72
2023-03-15T18:34:09.217Z,101308.50
2023-03-15T18:36:42.286Z,101320.00
2023-03-15T18:39:14.225Z,101311.72
2023-03-15T18:41:46.071Z,101320.16
2023-03-15T18:44:17.986Z,101321.16
2023-03-15T18:46:49.811Z,101316.13
2023-03-15T18:49:21.608Z,101312.44
2023-03-15T18:51:56.307Z,101321.31
2023-03-15T18:54:28.225Z,101332.28
2023-03-15T18:56:59.997Z,101326.28
2023-03-15T18:59:31.794Z,101324.78
2023-03-15T19:02:04.699Z,101320.59
2023-03-15T19:04:36.623Z,101325.53
2023-03-15T19:07:09.646Z,101328.16
2023-03-15T19:09:41.353Z,101324.56
2023-03-15T19:12:13.024Z,101322.44
2023-03-15T19:14:46.358Z,101334.19
2023-03-15T19:17:18.187Z,101337.16
2023-03-15T19:19:50.029Z,101339.22
2023-03-15T19:22:23.284Z,101338.25
2023-03-15T19:24:55.189Z,101339.22
2023-03-15T19:27:27.128Z,101344.88
2023-03-15T19:29:59.218Z,101344.03
2023-03-15T19:32:31.637Z,101346.94
2023-03-15T19:35:03.572Z,101334.91
2023-03-15T19:37:36.640Z,101349.53
2023-03-15T19:40:11.964Z,101349.97
2023-03-15T19:42:43.812Z,101347.34
2023-03-15T19:45:17.474Z,101351.09
2023-03-15T19:47:49.728Z,101347.19
2023-03-15T19:50:21.521Z,101350.94
2023-03-15T19:52:54.696Z,101349.81
2023-03-15T19:55:29.639Z,101354.13
2023-03-15T19:58:03.024Z,101364.50
2023-03-15T20:00:35.330Z,101360.00
2023-03-15T20:03:07.139Z,101365.34
2023-03-15T20:05:39.907Z,101358.94
2023-03-15T20:08:13.210Z,101361.50
2023-03-15T20:10:45.145Z,101359.38
2023-03-15T20:13:16.983Z,101362.97
2023-03-15T20:15:48.817Z,101362.28
2023-03-15T20:18:20.700Z,101365.91
2023-03-15T20:20:53.629Z,101371.94
2023-03-15T20:23:26.818Z,101371.59
2023-03-15T20:26:06.151Z,101375.00
2023-03-15T20:28:38.224Z,101376.38
2023-03-15T20:31:15.506Z,101377.41
2023-03-15T20:33:48.842Z,101380.78
2023-03-15T20:36:21.731Z,101384.72
2023-03-15T20:38:54.736Z,101380.53
2023-03-15T20:41:26.695Z,101386.66
2023-03-15T20:43:59.924Z,101389.97
2023-03-15T20:46:31.875Z,101401.28
2023-03-15T20:49:03.597Z,101396.25
2023-03-15T20:51:35.556Z,101401.28
2023-03-15T20:54:08.553Z,101402.06
2023-03-15T20:56:40.444Z,101405.53
2023-03-15T20:59:12.315Z,101401.91
2023-03-15T21:01:44.156Z,101403.06
2023-03-15T21:04:16.166Z,101399.31
2023-03-15T21:06:47.761Z,101404.41
2023-03-15T21:09:20.830Z,101404.22
2023-03-15T21:11:52.660Z,101402.34
2023-03-15T21:14:24.506Z,101402.34
2023-03-15T21:16:56.406Z,101404.50
2023-03-15T21:19:28.182Z,101406.94
2023-03-15T21:22:01.382Z,101400.81
2023-03-15T21:24:40.677Z,101399.88
2023-03-15T21:27:14.940Z,101399.81
2023-03-15T21:29:46.852Z,101401.84
2023-03-15T21:32:18.860Z,101401.84
2023-03-15T21:34:50.850Z,101401.19
2023-03-15T21:37:22.643Z,101401.84
2023-03-15T21:39:55.848Z,101393.19
2023-03-15T21:42:27.735Z,101393.25
2023-03-15T21:44:59.686Z,101403.06
2023-03-15T21:47:32.082Z,101402.47
2023-03-15T21:50:03.962Z,101392.09
2023-03-15T21:52:35.789Z,101396.78
2023-03-15T21:55:15.422Z,101396.25
2023-03-15T21:57:47.139Z,101406.56
2023-03-15T22:00:23.167Z,101402.16
2023-03-15T22:02:55.931Z,101405.47
2023-03-15T22:05:28.313Z,101404.34
2023-03-15T22:08:00.138Z,101404.34
2023-03-15T22:10:33.191Z,101410.75
2023-03-15T22:13:05.326Z,101412.69
2023-03-15T22:15:36.945Z,101413.81
2023-03-15T22:18:08.678Z,101420.31
2023-03-15T22:20:40.646Z,101419.00
2023-03-15T22:23:12.242Z,101420.28
2023-03-15T22:25:45.425Z,101418.00
2023-03-15T22:28:17.603Z,101424.19
2023-03-15T22:30:52.150Z,101427.19
2023-03-15T22:33:25.144Z,101426.84
2023-03-15T22:36:03.221Z,101431.19
2023-03-15T22:38:37.889Z,101428.28
2023-03-15T22:41:14.027Z,101432.88
2023-03-15T22:43:46.190Z,101427.53
2023-03-15T22:46:18.086Z,101423.53
2023-03-15T22:48:49.893Z,101426.22
2023-03-15T22:51:22.381Z,101428.00
2023-03-15T22:53:54.155Z,101431.56
2023-03-15T22:56:27.128Z,101430.75
2023-03-15T22:58:58.985Z,101420.59
2023-03-15T23:01:30.782Z,101425.50
2023-03-15T23:04:02.591Z,101428.38
2023-03-15T23:06:34.600Z,101427.47
2023-03-15T23:09:06.846Z,101431.63
2023-03-15T23:11:40.005Z,101430.09
2023-03-15T23:14:11.815Z,101429.31
2023-03-15T23:16:44.163Z,101422.50
2023-03-15T23:19:16.614Z,101423.28
2023-03-15T23:21:48.487Z,101432.97
2023-03-15T23:24:20.283Z,101426.09
2023-03-15T23:26:56.424Z,101433.19
2023-03-15T23:29:28.315Z,101444.84
2023-03-15T23:32:00.260Z,101443.31
2023-03-15T23:34:32.439Z,101446.69
2023-03-15T23:37:04.267Z,101447.50
2023-03-15T23:39:37.004Z,101450.78
2023-03-15T23:42:10.732Z,101456.47
2023-03-15T23:44:43.272Z,101454.59
2023-03-15T23:47:14.883Z,101450.41
2023-03-15T23:49:46.739Z,101461.81
2023-03-15T23:52:19.248Z,101459.41
2023-03-15T23:54:51.044Z,101460.91
2023-03-15T23:57:24.215Z,101457.47
2023-03-15T23:59:56.034Z,101453.06
